createdAt,value
2019-06-01T00:01:07.259Z,14.58
2019-06-01T00:03:36.495Z,14.53
2019-06-01T00:06:05.616Z,14.50
2019-06-01T00:08:34.792Z,14.38
2019-06-01T00:11:03.880Z,14.34
2019-06-01T00:13:33.024Z,14.30
2019-06-01T00:16:02.403Z,14.31
2019-06-01T00:18:31.565Z,14.34
2019-06-01T00:21:00.629Z,14.25
2019-06-01T00:23:29.770Z,13.89
2019-06-01T00:25:58.830Z,13.83
2019-06-01T00:28:28.009Z,13.92
2019-06-01T00:30:57.184Z,13.97
2019-06-01T00:33:26.366Z,13.98
2019-06-01T00:35:55.488Z,13.99
2019-06-01T00:38:24.648Z,13.90
2019-06-01T00:40:53.710Z,13.85
2019-06-01T00:43:22.978Z,13.84
2019-06-01T00:45:53.145Z,13.87
2019-06-01T00:48:22.296Z,13.79
2019-06-01T00:50:51.398Z,13.76
2019-06-01T00:53:20.563Z,13.63
2019-06-01T00:55:49.658Z,13.68
2019-06-01T00:58:18.870Z,13.60
2019-06-01T01:00:49.433Z,13.52
2019-06-01T01:03:18.834Z,13.58
2019-06-01T01:05:48.712Z,13.68
2019-06-01T01:08:17.850Z,13.54
2019-06-01T01:10:46.899Z,13.40
2019-06-01T01:13:18.942Z,13.12
2019-06-01T01:15:47.949Z,12.96
2019-06-01T01:18:17.027Z,12.99
2019-06-01T01:20:46.067Z,13.06
2019-06-01T01:23:15.255Z,13.16
2019-06-01T01:25:44.358Z,13.14
2019-06-01T01:28:13.470Z,12.98
2019-06-01T01:30:58.011Z,13.06
2019-06-01T01:33:13.571Z,13.16
2019-06-01T01:35:43.298Z,13.22
2019-06-01T01:38:12.413Z,13.15
2019-06-01T01:40:41.551Z,13.09
2019-06-01T01:43:10.663Z,13.13
2019-06-01T01:45:39.765Z,13.11
2019-06-01T01:48:08.823Z,13.07
2019-06-01T01:50:37.929Z,12.99
2019-06-01T01:53:06.987Z,13.04
2019-06-01T01:55:36.114Z,13.09
2019-06-01T01:58:05.157Z,13.18
2019-06-01T02:00:36.085Z,13.23
2019-06-01T02:03:05.529Z,13.25
2019-06-01T02:05:34.663Z,13.24
2019-06-01T02:08:03.753Z,13.18
2019-06-01T02:10:32.853Z,13.19
2019-06-01T02:13:02.233Z,13.15
2019-06-01T02:15:31.387Z,12.90
2019-06-01T02:18:00.787Z,12.67
2019-06-01T02:20:29.914Z,12.62
2019-06-01T02:22:59.016Z,12.73
2019-06-01T02:25:28.158Z,12.79
2019-06-01T02:27:57.422Z,12.71
2019-06-01T02:30:26.554Z,12.81
2019-06-01T02:32:56.766Z,12.80
2019-06-01T02:35:26.933Z,12.79
2019-06-01T02:37:56.475Z,12.76
2019-06-01T02:40:26.164Z,12.80
2019-06-01T02:42:56.956Z,12.84
2019-06-01T02:45:26.088Z,12.57
2019-06-01T02:47:55.417Z,12.38
2019-06-01T02:50:24.534Z,12.30
2019-06-01T02:52:53.614Z,12.34
2019-06-01T02:55:22.810Z,12.26
2019-06-01T02:57:51.905Z,12.29
2019-06-01T03:00:44.860Z,12.27
2019-06-01T03:03:14.227Z,12.33
2019-06-01T03:05:44.569Z,12.20
2019-06-01T03:08:13.673Z,12.18
2019-06-01T03:10:42.826Z,12.14
2019-06-01T03:13:12.005Z,12.17
2019-06-01T03:15:41.066Z,12.16
2019-06-01T03:18:10.123Z,12.29
2019-06-01T03:20:39.387Z,12.39
2019-06-01T03:23:08.474Z,12.39
2019-06-01T03:25:37.584Z,12.49
2019-06-01T03:28:06.723Z,10.69
2019-06-01T03:30:45.098Z,12.40
2019-06-01T03:33:14.199Z,12.40
2019-06-01T03:35:44.684Z,12.39
2019-06-01T03:38:13.786Z,12.40
2019-06-01T03:40:42.849Z,12.34
2019-06-01T03:43:11.918Z,12.35
2019-06-01T03:45:41.097Z,12.32
2019-06-01T03:48:10.154Z,12.30
2019-06-01T03:50:39.297Z,12.33
2019-06-01T03:53:08.340Z,12.38
2019-06-01T03:55:37.448Z,12.42
2019-06-01T03:58:07.294Z,12.40
2019-06-01T04:00:36.380Z,12.45
2019-06-01T04:03:05.455Z,12.47
2019-06-01T04:05:34.514Z,12.16
2019-06-01T04:08:03.626Z,12.03
2019-06-01T04:10:32.656Z,11.90
2019-06-01T04:13:01.680Z,11.79
2019-06-01T04:15:30.731Z,11.94
2019-06-01T04:17:59.790Z,12.28
2019-06-01T04:20:28.921Z,12.37
2019-06-01T04:22:58.004Z,12.82
2019-06-01T04:25:27.055Z,12.77
2019-06-01T04:27:56.172Z,13.03
2019-06-01T04:30:26.706Z,13.33
2019-06-01T04:32:55.840Z,13.54
2019-06-01T04:35:24.954Z,13.01
2019-06-01T04:37:54.056Z,12.60
2019-06-01T04:40:23.116Z,12.65
2019-06-01T04:42:52.200Z,12.71
2019-06-01T04:45:21.322Z,12.67
2019-06-01T04:47:50.491Z,12.93
2019-06-01T04:50:19.562Z,13.00
2019-06-01T04:52:48.737Z,13.59
2019-06-01T04:55:17.863Z,14.37
2019-06-01T04:57:47.040Z,14.70
2019-06-01T05:00:25.711Z,14.52
2019-06-01T05:02:47.105Z,13.82
2019-06-01T05:05:16.226Z,14.07
2019-06-01T05:07:45.480Z,14.27
2019-06-01T05:10:15.992Z,14.11
2019-06-01T05:12:45.297Z,14.21
2019-06-01T05:15:15.949Z,14.28
2019-06-01T05:17:45.221Z,14.52
2019-06-01T05:20:14.702Z,14.46
2019-06-01T05:22:43.893Z,14.69
2019-06-01T05:25:13.615Z,14.77
2019-06-01T05:27:44.627Z,15.14
2019-06-01T05:30:13.867Z,15.26
2019-06-01T05:32:42.942Z,15.48
2019-06-01T05:35:12.091Z,15.91
2019-06-01T05:37:41.194Z,16.01
2019-06-01T05:40:10.677Z,16.39
2019-06-01T05:42:39.807Z,17.67
2019-06-01T05:45:11.178Z,18.58
2019-06-01T05:47:40.351Z,18.95
2019-06-01T05:50:10.621Z,19.16
2019-06-01T05:52:41.770Z,19.25
2019-06-01T05:55:10.976Z,18.22
2019-06-01T05:57:40.019Z,18.38
2019-06-01T06:00:09.220Z,19.47
2019-06-01T06:02:38.344Z,19.80
2019-06-01T06:05:07.512Z,20.54
2019-06-01T06:07:36.627Z,21.40
2019-06-01T06:10:06.132Z,21.03
2019-06-01T06:12:35.194Z,21.31
2019-06-01T06:15:04.298Z,21.50
2019-06-01T06:17:33.430Z,19.63
2019-06-01T06:20:02.568Z,20.73
2019-06-01T06:22:31.637Z,19.89
2019-06-01T06:25:00.789Z,21.33
2019-06-01T06:27:29.866Z,20.61
2019-06-01T06:29:59.233Z,22.32
2019-06-01T06:32:28.388Z,23.07
2019-06-01T06:34:57.594Z,23.64
2019-06-01T06:37:26.652Z,22.48
2019-06-01T06:39:55.754Z,22.48
2019-06-01T06:42:24.868Z,23.33
2019-06-01T06:44:54.033Z,24.59
2019-06-01T06:47:23.106Z,24.89
2019-06-01T06:49:52.281Z,24.75
2019-06-01T06:52:21.605Z,23.82
2019-06-01T06:54:50.706Z,25.10
2019-06-01T06:57:20.150Z,25.79
2019-06-01T06:59:49.225Z,24.91
2019-06-01T07:02:18.777Z,25.39
2019-06-01T07:04:47.861Z,25.96
2019-06-01T07:07:17.608Z,25.74
2019-06-01T07:09:46.765Z,26.45
2019-06-01T07:12:15.803Z,26.03
2019-06-01T07:14:44.886Z,25.22
2019-06-01T07:17:15.903Z,26.02
2019-06-01T07:19:44.630Z,26.57
2019-06-01T07:22:16.813Z,26.87
2019-06-01T07:24:44.559Z,27.49
2019-06-01T07:27:13.617Z,27.46
2019-06-01T07:29:42.648Z,27.02
2019-06-01T07:32:11.821Z,27.75
2019-06-01T07:34:42.758Z,27.25
2019-06-01T07:37:11.777Z,29.06
2019-06-01T07:39:40.834Z,28.02
2019-06-01T07:42:10.006Z,28.77
2019-06-01T07:44:39.095Z,28.20
2019-06-01T07:47:08.215Z,28.79
2019-06-01T07:49:37.459Z,29.94
2019-06-01T07:52:12.569Z,29.93
2019-06-01T07:54:37.931Z,30.85
2019-06-01T07:57:07.009Z,28.82
2019-06-01T07:59:36.087Z,29.96
2019-06-01T08:02:05.337Z,30.52
2019-06-01T08:04:51.809Z,29.86
2019-06-01T08:07:05.268Z,30.72
2019-06-01T08:09:34.296Z,28.55
2019-06-01T08:12:03.400Z,30.08
2019-06-01T08:14:32.872Z,29.74
2019-06-01T08:17:02.019Z,30.76
2019-06-01T08:19:32.053Z,30.33
2019-06-01T08:22:01.251Z,29.84
2019-06-01T08:24:30.361Z,28.70
2019-06-01T08:26:59.535Z,30.98
2019-06-01T08:29:28.899Z,28.66
2019-06-01T08:31:57.993Z,30.32
2019-06-01T08:34:27.020Z,30.16
2019-06-01T08:36:56.057Z,31.23
2019-06-01T08:39:25.264Z,32.44
2019-06-01T08:41:54.442Z,32.83
2019-06-01T08:44:23.616Z,31.65
2019-06-01T08:46:52.682Z,31.57
2019-06-01T08:49:21.800Z,29.87
2019-06-01T08:51:50.917Z,29.55
2019-06-01T08:54:20.055Z,29.71
2019-06-01T08:56:49.192Z,29.50
2019-06-01T08:59:18.395Z,29.82
2019-06-01T09:01:47.556Z,31.96
2019-06-01T09:04:16.765Z,30.55
2019-06-01T09:06:45.860Z,30.50
2019-06-01T09:09:15.002Z,31.59
2019-06-01T09:11:44.215Z,32.11
2019-06-01T09:14:13.364Z,31.23
2019-06-01T09:16:42.457Z,32.74
2019-06-01T09:19:11.840Z,31.59
2019-06-01T09:21:41.058Z,30.79
2019-06-01T09:24:10.195Z,31.78
2019-06-01T09:26:39.286Z,32.43
2019-06-01T09:29:08.522Z,32.52
2019-06-01T09:31:37.614Z,30.11
2019-06-01T09:34:06.887Z,30.45
2019-06-01T09:36:36.826Z,28.86
2019-06-01T09:39:07.748Z,29.99
2019-06-01T09:41:36.869Z,29.21
2019-06-01T09:44:06.268Z,30.44
2019-06-01T09:46:35.697Z,31.44
2019-06-01T09:49:04.955Z,28.92
2019-06-01T09:51:35.478Z,29.29
2019-06-01T09:54:04.987Z,29.03
2019-06-01T09:56:37.235Z,28.88
2019-06-01T09:59:05.068Z,30.88
2019-06-01T10:01:34.472Z,30.92
2019-06-01T10:04:03.611Z,29.54
2019-06-01T10:06:32.652Z,28.86
2019-06-01T10:09:01.738Z,28.49
2019-06-01T10:11:32.434Z,30.03
2019-06-01T10:14:01.738Z,30.59
2019-06-01T10:17:05.148Z,30.68
2019-06-01T10:19:36.725Z,31.22
2019-06-01T10:22:05.807Z,31.17
2019-06-01T10:24:35.180Z,31.25
2019-06-01T10:27:04.272Z,29.78
2019-06-01T10:29:34.610Z,29.79
2019-06-01T10:32:03.900Z,30.46
2019-06-01T10:34:33.547Z,30.12
2019-06-01T10:37:02.625Z,29.05
2019-06-01T10:39:31.709Z,29.38
2019-06-01T10:42:00.800Z,29.06
2019-06-01T10:44:29.915Z,29.54
2019-06-01T10:46:58.973Z,30.43
2019-06-01T10:49:28.075Z,32.20
2019-06-01T10:51:57.299Z,32.54
2019-06-01T10:54:26.377Z,33.10
2019-06-01T10:56:55.462Z,34.11
2019-06-01T10:59:24.540Z,33.34
2019-06-01T11:01:53.784Z,33.19
2019-06-01T11:04:22.921Z,33.76
2019-06-01T11:06:52.123Z,33.50
2019-06-01T11:09:21.233Z,32.12
2019-06-01T11:11:50.398Z,33.94
2019-06-01T11:14:19.443Z,33.43
2019-06-01T11:16:55.721Z,33.44
2019-06-01T11:19:19.531Z,33.17
2019-06-01T11:21:48.585Z,34.24
2019-06-01T11:24:17.687Z,33.72
2019-06-01T11:26:46.845Z,34.15
2019-06-01T11:29:15.883Z,32.99
2019-06-01T11:31:44.987Z,32.74
2019-06-01T11:34:14.151Z,32.00
2019-06-01T11:37:03.005Z,33.39
2019-06-01T11:39:14.018Z,34.27
2019-06-01T11:41:43.119Z,34.34
2019-06-01T11:44:12.241Z,34.19
2019-06-01T11:46:41.411Z,32.43
2019-06-01T11:49:11.077Z,31.71
2019-06-01T11:51:41.492Z,32.48
2019-06-01T11:54:10.580Z,33.79
2019-06-01T11:56:39.679Z,33.27
2019-06-01T11:59:08.828Z,33.01
2019-06-01T12:01:37.910Z,34.11
2019-06-01T12:04:06.987Z,34.53
2019-06-01T12:06:36.244Z,34.13
2019-06-01T12:09:07.998Z,32.88
2019-06-01T12:11:37.874Z,32.30
2019-06-01T12:14:07.088Z,33.07
2019-06-01T12:16:38.425Z,32.62
2019-06-01T12:19:07.472Z,32.05
2019-06-01T12:21:37.062Z,31.46
2019-06-01T12:24:06.978Z,31.04
2019-06-01T12:26:37.189Z,31.12
2019-06-01T12:29:06.525Z,31.95
2019-06-01T12:31:35.530Z,32.70
2019-06-01T12:34:04.669Z,32.74
2019-06-01T12:36:33.763Z,31.68
2019-06-01T12:39:02.903Z,32.19
2019-06-01T12:41:32.439Z,33.31
2019-06-01T12:44:14.649Z,33.86
2019-06-01T12:46:44.931Z,34.75
2019-06-01T12:49:14.059Z,34.92
2019-06-01T12:51:44.714Z,34.00
2019-06-01T12:54:13.859Z,34.65
2019-06-01T12:56:42.926Z,33.36
2019-06-01T12:59:12.054Z,32.35
2019-06-01T13:01:41.240Z,32.11
2019-06-01T13:04:10.286Z,32.57
2019-06-01T13:06:40.665Z,31.97
2019-06-01T13:09:09.951Z,31.53
2019-06-01T13:11:39.079Z,32.16
2019-06-01T13:14:08.190Z,33.21
2019-06-01T13:16:37.290Z,31.51
2019-06-01T13:19:06.414Z,33.22
2019-06-01T13:21:35.632Z,33.12
2019-06-01T13:24:04.705Z,33.90
2019-06-01T13:26:33.888Z,34.12
2019-06-01T13:29:02.970Z,33.21
2019-06-01T13:31:32.138Z,34.51
2019-06-01T13:34:01.246Z,34.35
2019-06-01T13:36:30.355Z,33.53
2019-06-01T13:38:59.466Z,31.71
2019-06-01T13:41:28.539Z,32.54
2019-06-01T13:43:57.616Z,32.20
2019-06-01T13:46:26.741Z,32.32
2019-06-01T13:48:55.834Z,32.54
2019-06-01T13:51:24.926Z,31.88
2019-06-01T13:53:54.629Z,32.39
2019-06-01T13:56:23.747Z,31.10
2019-06-01T13:58:52.895Z,31.11
2019-06-01T14:01:21.934Z,31.47
2019-06-01T14:03:52.275Z,31.03
2019-06-01T14:06:22.128Z,30.90
2019-06-01T14:08:51.193Z,30.35
2019-06-01T14:11:20.328Z,30.97
2019-06-01T14:13:49.919Z,30.75
2019-06-01T14:16:19.037Z,31.25
2019-06-01T14:18:48.141Z,30.33
2019-06-01T14:21:17.253Z,29.83
2019-06-01T14:23:47.619Z,29.85
2019-06-01T14:26:16.693Z,29.57
2019-06-01T14:28:46.145Z,29.26
2019-06-01T14:31:15.224Z,28.71
2019-06-01T14:33:44.374Z,30.13
2019-06-01T14:36:13.467Z,31.24
2019-06-01T14:38:46.867Z,30.89
2019-06-01T14:41:13.350Z,30.80
2019-06-01T14:43:42.425Z,31.08
2019-06-01T14:46:11.544Z,30.81
2019-06-01T14:48:58.264Z,30.23
2019-06-01T14:51:27.312Z,29.36
2019-06-01T14:53:57.875Z,29.28
2019-06-01T14:56:27.453Z,29.02
2019-06-01T14:59:00.007Z,28.83
2019-06-01T15:01:32.754Z,29.17
2019-06-01T15:03:59.568Z,29.50
2019-06-01T15:06:28.631Z,29.06
2019-06-01T15:09:17.144Z,29.15
2019-06-01T15:11:29.886Z,29.31
2019-06-01T15:13:58.892Z,29.41
2019-06-01T15:16:28.013Z,29.68
2019-06-01T15:18:58.588Z,29.36
2019-06-01T15:21:27.735Z,29.05
2019-06-01T15:23:57.058Z,28.47
2019-06-01T15:26:27.711Z,28.49
2019-06-01T15:28:57.134Z,28.13
2019-06-01T15:31:26.256Z,28.22
2019-06-01T15:33:55.366Z,28.49
2019-06-01T15:36:24.454Z,28.61
2019-06-01T15:38:53.635Z,28.76
2019-06-01T15:41:22.766Z,28.59
2019-06-01T15:43:52.822Z,28.39
2019-06-01T15:46:22.018Z,28.52
2019-06-01T15:48:51.661Z,28.87
2019-06-01T15:51:20.755Z,28.80
2019-06-01T15:53:49.832Z,28.70
2019-06-01T15:56:18.933Z,29.08
2019-06-01T15:58:52.861Z,28.96
2019-06-01T16:01:18.825Z,28.39
2019-06-01T16:03:47.853Z,28.36
2019-06-01T16:06:16.942Z,28.65
2019-06-01T16:08:46.112Z,28.14
2019-06-01T16:11:15.183Z,28.27
2019-06-01T16:13:44.222Z,28.37
2019-06-01T16:16:13.339Z,28.09
2019-06-01T16:18:42.391Z,28.08
2019-06-01T16:21:11.560Z,28.14
2019-06-01T16:23:49.911Z,28.10
2019-06-01T16:26:16.044Z,28.60
2019-06-01T16:28:42.252Z,28.27
2019-06-01T16:31:11.364Z,28.18
2019-06-01T16:33:40.430Z,27.95
2019-06-01T16:36:09.583Z,28.11
2019-06-01T16:38:38.666Z,28.01
2019-06-01T16:41:07.710Z,27.97
2019-06-01T16:43:36.819Z,28.42
2019-06-01T16:46:06.050Z,28.18
2019-06-01T16:48:35.140Z,27.85
2019-06-01T16:51:04.303Z,27.90
2019-06-01T16:53:33.341Z,27.97
2019-06-01T16:56:02.596Z,28.08
2019-06-01T16:58:31.705Z,28.03
2019-06-01T17:01:00.830Z,27.87
2019-06-01T17:03:30.071Z,28.16
2019-06-01T17:06:00.524Z,27.85
2019-06-01T17:08:29.627Z,27.85
2019-06-01T17:10:58.818Z,27.65
2019-06-01T17:13:27.945Z,27.63
2019-06-01T17:15:57.022Z,27.71
2019-06-01T17:18:26.114Z,27.59
2019-06-01T17:20:55.170Z,27.53
2019-06-01T17:23:27.933Z,27.46
2019-06-01T17:25:55.038Z,27.35
2019-06-01T17:28:24.165Z,27.46
2019-06-01T17:30:53.262Z,27.50
2019-06-01T17:33:22.430Z,27.59
2019-06-01T17:35:51.475Z,27.70
2019-06-01T17:38:20.643Z,27.73
2019-06-01T17:40:49.734Z,27.63
2019-06-01T17:43:18.953Z,27.59
2019-06-01T17:45:48.183Z,27.66
2019-06-01T17:48:25.746Z,27.42
2019-06-01T17:50:48.112Z,27.51
2019-06-01T17:53:17.243Z,27.56
2019-06-01T17:55:46.315Z,27.49
2019-06-01T17:58:15.429Z,27.49
2019-06-01T18:00:44.451Z,27.38
2019-06-01T18:03:13.643Z,27.29
2019-06-01T18:05:42.667Z,27.09
2019-06-01T18:08:12.705Z,27.05
2019-06-01T18:10:53.258Z,26.52
2019-06-01T18:13:13.070Z,26.33
2019-06-01T18:15:42.161Z,26.04
2019-06-01T18:18:12.612Z,25.99
2019-06-01T18:20:42.019Z,25.91
2019-06-01T18:23:11.906Z,25.85
2019-06-01T18:25:41.910Z,25.77
2019-06-01T18:28:16.164Z,25.74
2019-06-01T18:30:41.878Z,25.70
2019-06-01T18:33:11.246Z,25.52
2019-06-01T18:35:40.238Z,25.39
2019-06-01T18:38:09.820Z,25.31
2019-06-01T18:40:38.931Z,25.06
2019-06-01T18:43:10.104Z,24.80
2019-06-01T18:45:39.296Z,24.61
2019-06-01T18:48:08.450Z,24.57
2019-06-01T18:50:37.533Z,24.39
2019-06-01T18:53:07.886Z,24.67
2019-06-01T18:55:37.071Z,24.40
2019-06-01T18:58:06.533Z,24.17
2019-06-01T19:00:39.336Z,24.04
2019-06-01T19:03:07.263Z,23.78
2019-06-01T19:05:36.765Z,23.61
2019-06-01T19:08:07.037Z,23.47
2019-06-01T19:10:37.544Z,23.25
2019-06-01T19:13:07.645Z,23.11
2019-06-01T19:15:36.809Z,22.95
2019-06-01T19:18:06.397Z,22.80
2019-06-01T19:20:35.488Z,22.78
2019-06-01T19:23:04.715Z,22.73
2019-06-01T19:25:33.846Z,22.41
2019-06-01T19:28:02.929Z,22.22
2019-06-01T19:30:36.837Z,21.87
2019-06-01T19:33:07.146Z,21.87
2019-06-01T19:35:36.216Z,21.97
2019-06-01T19:38:05.369Z,21.83
2019-06-01T19:40:35.756Z,21.90
2019-06-01T19:43:07.237Z,21.68
2019-06-01T19:45:36.421Z,21.70
2019-06-01T19:48:08.027Z,21.59
2019-06-01T19:50:38.568Z,21.51
2019-06-01T19:53:08.848Z,21.32
2019-06-01T19:55:38.386Z,21.25
2019-06-01T19:58:07.635Z,21.22
2019-06-01T20:00:36.928Z,21.15
2019-06-01T20:03:06.432Z,21.06
2019-06-01T20:05:35.558Z,20.99
2019-06-01T20:08:05.230Z,20.91
2019-06-01T20:10:34.372Z,20.80
2019-06-01T20:13:03.962Z,20.74
2019-06-01T20:15:33.433Z,20.66
2019-06-01T20:18:02.630Z,20.53
2019-06-01T20:20:31.878Z,20.31
2019-06-01T20:23:01.221Z,20.24
2019-06-01T20:25:30.894Z,20.08
2019-06-01T20:28:00.118Z,19.97
2019-06-01T20:30:29.424Z,19.89
2019-06-01T20:32:58.575Z,19.81
2019-06-01T20:35:27.868Z,19.72
2019-06-01T20:37:57.107Z,19.67
2019-06-01T20:40:26.184Z,19.57
2019-06-01T20:42:55.344Z,19.47
2019-06-01T20:45:24.667Z,19.38
2019-06-01T20:47:53.868Z,19.32
2019-06-01T20:50:23.214Z,19.33
2019-06-01T20:52:52.617Z,19.25
2019-06-01T20:55:23.282Z,19.14
2019-06-01T20:57:52.359Z,19.12
2019-06-01T21:00:22.103Z,19.14
2019-06-01T21:02:51.384Z,19.09
2019-06-01T21:05:22.105Z,19.02
2019-06-01T21:07:51.660Z,18.95
2019-06-01T21:10:22.331Z,18.84
2019-06-01T21:12:51.548Z,18.79
2019-06-01T21:15:21.305Z,18.81
2019-06-01T21:17:50.631Z,18.69
2019-06-01T21:20:26.699Z,18.61
2019-06-01T21:22:50.696Z,18.50
2019-06-01T21:25:20.867Z,18.44
2019-06-01T21:27:49.997Z,18.23
2019-06-01T21:30:22.319Z,18.12
2019-06-01T21:32:50.973Z,18.05
2019-06-01T21:35:21.260Z,18.17
2019-06-01T21:37:50.448Z,18.27
2019-06-01T21:40:21.518Z,18.25
2019-06-01T21:43:02.744Z,18.21
2019-06-01T21:45:21.760Z,18.11
2019-06-01T21:47:50.859Z,18.06
2019-06-01T21:50:22.106Z,17.97
2019-06-01T21:52:55.335Z,17.84
2019-06-01T21:55:24.536Z,17.78
2019-06-01T21:57:53.591Z,17.74
2019-06-01T22:00:31.087Z,17.68
2019-06-01T22:03:00.222Z,17.67
2019-06-01T22:05:29.229Z,17.59
2019-06-01T22:07:58.329Z,17.55
2019-06-01T22:10:29.123Z,17.53
2019-06-01T22:12:58.177Z,17.45
2019-06-01T22:15:28.038Z,17.51
2019-06-01T22:17:57.111Z,17.44
2019-06-01T22:20:26.216Z,17.41
2019-06-01T22:22:55.308Z,17.43
2019-06-01T22:25:24.378Z,17.39
2019-06-01T22:27:53.470Z,17.41
2019-06-01T22:30:22.582Z,17.42
2019-06-01T22:32:51.667Z,17.35
2019-06-01T22:35:22.739Z,17.18
2019-06-01T22:37:52.030Z,17.15
2019-06-01T22:40:21.094Z,17.13
2019-06-01T22:42:50.184Z,17.15
2019-06-01T22:45:20.093Z,17.09
2019-06-01T22:47:49.215Z,16.99
2019-06-01T22:50:18.275Z,16.81
2019-06-01T22:52:47.341Z,16.65
2019-06-01T22:55:16.496Z,16.69
2019-06-01T22:57:45.533Z,16.69
2019-06-01T23:00:15.208Z,16.60
2019-06-01T23:02:44.370Z,16.55
2019-06-01T23:05:13.469Z,16.43
2019-06-01T23:07:42.565Z,16.49
2019-06-01T23:10:14.844Z,16.43
2019-06-01T23:12:43.963Z,16.33
2019-06-01T23:15:13.043Z,16.23
2019-06-01T23:17:42.082Z,16.27
2019-06-01T23:20:11.142Z,16.22
2019-06-01T23:22:40.195Z,16.26
2019-06-01T23:25:09.272Z,16.33
2019-06-01T23:27:38.301Z,16.46
2019-06-01T23:30:07.399Z,16.42
2019-06-01T23:32:36.454Z,16.46
2019-06-01T23:35:05.617Z,16.47
2019-06-01T23:37:34.652Z,16.43
2019-06-01T23:40:03.713Z,16.33
2019-06-01T23:42:32.949Z,16.33
2019-06-01T23:45:02.083Z,16.27
2019-06-01T23:47:31.405Z,16.21
2019-06-01T23:50:00.538Z,16.21
2019-06-01T23:52:29.675Z,16.03
2019-06-01T23:54:58.671Z,15.99
2019-06-01T23:57:27.972Z,16.06
2019-06-01T23:59:57.096Z,15.80
